KACV - Arcata/Eureka, California, USA
Updated: Wed, 20-Sep-2017 8:53am PDT
Mist, Overcast
Mist, Overcast
 Wind from calm
Wind: Calm
Temperature: 59°F , 15°C
Dew Point: 59°F , 15°C
Humidity: 100%
Barometer: 29.91 inHg , 1012.9 hPa
Summary: Mist
Clouds: Overcast
Visibility: 6 miles , 10 km
Cloud details: Overcast 3500 ft
2017/09/20 15:53 KACV 201553Z AUTO 00000KT 6SM BR OVC035 15/15 A2991 RMK AO2 SLP133 T01500150

Metar display script from Saratoga-Weather.org